sensor_id;sensor_type;location;lat;lon;timestamp;P1;durP1;ratioP1;P2;durP2;ratioP2
49131;SDS011;35149;51.196;6.204;2023-02-01T00:01:19;13.90;;;9.50;;
49131;SDS011;35149;51.196;6.204;2023-02-01T00:03:46;17.33;;;9.77;;
49131;SDS011;35149;51.196;6.204;2023-02-01T00:06:15;18.20;;;10.23;;
49131;SDS011;35149;51.196;6.204;2023-02-01T00:08:48;16.88;;;8.95;;
49131;SDS011;35149;51.196;6.204;2023-02-01T00:11:14;14.10;;;7.88;;
49131;SDS011;35149;51.196;6.204;2023-02-01T00:13:41;10.82;;;7.35;;
49131;SDS011;35149;51.196;6.204;2023-02-01T00:18:58;14.23;;;6.78;;
49131;SDS011;35149;51.196;6.204;2023-02-01T00:21:31;10.05;;;6.63;;
49131;SDS011;35149;51.196;6.204;2023-02-01T00:23:59;12.20;;;5.88;;
49131;SDS011;35149;51.196;6.204;2023-02-01T00:26:36;14.23;;;5.88;;
49131;SDS011;35149;51.196;6.204;2023-02-01T00:29:07;13.82;;;6.20;;
49131;SDS011;35149;51.196;6.204;2023-02-01T00:31:37;19.25;;;6.25;;
49131;SDS011;35149;51.196;6.204;2023-02-01T00:34:04;13.88;;;6.10;;
49131;SDS011;35149;51.196;6.204;2023-02-01T00:36:31;14.70;;;5.32;;
49131;SDS011;35149;51.196;6.204;2023-02-01T00:38:58;13.73;;;6.05;;
49131;SDS011;35149;51.196;6.204;2023-02-01T00:41:24;12.50;;;6.32;;
49131;SDS011;35149;51.196;6.204;2023-02-01T00:43:51;10.25;;;5.30;;
49131;SDS011;35149;51.196;6.204;2023-02-01T00:46:18;13.57;;;5.80;;
49131;SDS011;35149;51.196;6.204;2023-02-01T00:48:45;10.38;;;4.97;;
49131;SDS011;35149;51.196;6.204;2023-02-01T00:51:16;10.93;;;4.95;;
49131;SDS011;35149;51.196;6.204;2023-02-01T00:53:50;10.82;;;5.35;;
49131;SDS011;35149;51.196;6.204;2023-02-01T00:56:22;12.43;;;5.22;;
49131;SDS011;35149;51.196;6.204;2023-02-01T00:58:49;10.93;;;4.47;;
49131;SDS011;35149;51.196;6.204;2023-02-01T01:01:17;11.25;;;4.85;;
49131;SDS011;35149;51.196;6.204;2023-02-01T01:03:47;11.23;;;5.00;;
49131;SDS011;35149;51.196;6.204;2023-02-01T01:06:24;8.68;;;4.32;;
49131;SDS011;35149;51.196;6.204;2023-02-01T01:08:53;9.32;;;3.95;;
49131;SDS011;35149;51.196;6.204;2023-02-01T01:11:22;6.38;;;3.67;;
49131;SDS011;35149;51.196;6.204;2023-02-01T01:13:51;10.70;;;4.43;;
49131;SDS011;35149;51.196;6.204;2023-02-01T01:16:24;9.23;;;4.15;;
49131;SDS011;35149;51.196;6.204;2023-02-01T01:18:53;13.85;;;4.68;;
49131;SDS011;35149;51.196;6.204;2023-02-01T01:21:21;12.20;;;4.85;;
49131;SDS011;35149;51.196;6.204;2023-02-01T01:23:50;7.10;;;4.13;;
49131;SDS011;35149;51.196;6.204;2023-02-01T01:26:25;13.98;;;5.18;;
49131;SDS011;35149;51.196;6.204;2023-02-01T01:28:59;13.43;;;4.90;;
49131;SDS011;35149;51.196;6.204;2023-02-01T01:31:35;11.50;;;4.65;;
49131;SDS011;35149;51.196;6.204;2023-02-01T01:34:02;18.05;;;4.88;;
49131;SDS011;35149;51.196;6.204;2023-02-01T01:36:32;8.68;;;4.80;;
49131;SDS011;35149;51.196;6.204;2023-02-01T01:38:58;10.93;;;4.57;;
49131;SDS011;35149;51.196;6.204;2023-02-01T01:41:29;13.27;;;4.40;;
49131;SDS011;35149;51.196;6.204;2023-02-01T01:47:22;11.90;;;4.93;;
49131;SDS011;35149;51.196;6.204;2023-02-01T01:49:49;11.35;;;4.25;;
49131;SDS011;35149;51.196;6.204;2023-02-01T01:52:16;11.25;;;4.70;;
49131;SDS011;35149;51.196;6.204;2023-02-01T01:54:45;10.32;;;4.60;;
49131;SDS011;35149;51.196;6.204;2023-02-01T01:57:18;11.52;;;4.38;;
49131;SDS011;35149;51.196;6.204;2023-02-01T02:00:09;10.80;;;4.43;;
49131;SDS011;35149;51.196;6.204;2023-02-01T02:02:44;20.08;;;4.70;;
49131;SDS011;35149;51.196;6.204;2023-02-01T02:05:15;10.23;;;4.15;;
49131;SDS011;35149;51.196;6.204;2023-02-01T02:07:46;12.95;;;4.82;;
49131;SDS011;35149;51.196;6.204;2023-02-01T02:10:19;11.30;;;3.72;;
49131;SDS011;35149;51.196;6.204;2023-02-01T02:12:46;10.20;;;3.97;;
49131;SDS011;35149;51.196;6.204;2023-02-01T02:15:16;7.57;;;3.75;;
49131;SDS011;35149;51.196;6.204;2023-02-01T02:18:05;9.50;;;4.45;;
49131;SDS011;35149;51.196;6.204;2023-02-01T02:20:45;14.27;;;4.55;;
49131;SDS011;35149;51.196;6.204;2023-02-01T02:34:38;11.77;;;5.53;;
49131;SDS011;35149;51.196;6.204;2023-02-01T02:45:28;14.25;;;5.60;;
49131;SDS011;35149;51.196;6.204;2023-02-01T02:51:03;11.07;;;4.68;;
49131;SDS011;35149;51.196;6.204;2023-02-01T02:53:56;12.15;;;5.60;;
49131;SDS011;35149;51.196;6.204;2023-02-01T02:56:47;15.68;;;4.97;;
49131;SDS011;35149;51.196;6.204;2023-02-01T02:59:39;13.30;;;4.77;;
49131;SDS011;35149;51.196;6.204;2023-02-01T03:02:28;14.25;;;4.70;;
49131;SDS011;35149;51.196;6.204;2023-02-01T03:05:15;13.15;;;5.28;;
49131;SDS011;35149;51.196;6.204;2023-02-01T03:12:52;17.17;;;4.88;;
49131;SDS011;35149;51.196;6.204;2023-02-01T03:15:33;14.15;;;4.32;;
49131;SDS011;35149;51.196;6.204;2023-02-01T03:18:13;10.32;;;5.05;;
49131;SDS011;35149;51.196;6.204;2023-02-01T03:20:48;13.32;;;5.13;;
49131;SDS011;35149;51.196;6.204;2023-02-01T03:23:18;13.02;;;5.57;;
49131;SDS011;35149;51.196;6.204;2023-02-01T03:25:48;11.40;;;5.25;;
49131;SDS011;35149;51.196;6.204;2023-02-01T03:28:25;12.20;;;4.85;;
49131;SDS011;35149;51.196;6.204;2023-02-01T03:30:57;14.13;;;5.45;;
49131;SDS011;35149;51.196;6.204;2023-02-01T03:33:27;15.05;;;5.10;;
49131;SDS011;35149;51.196;6.204;2023-02-01T03:38:39;13.02;;;4.80;;
49131;SDS011;35149;51.196;6.204;2023-02-01T03:41:18;12.07;;;5.03;;
49131;SDS011;35149;51.196;6.204;2023-02-01T03:43:51;15.40;;;5.35;;
49131;SDS011;35149;51.196;6.204;2023-02-01T03:46:36;9.63;;;5.00;;
49131;SDS011;35149;51.196;6.204;2023-02-01T03:49:13;12.35;;;4.50;;
49131;SDS011;35149;51.196;6.204;2023-02-01T03:51:47;14.48;;;5.10;;
49131;SDS011;35149;51.196;6.204;2023-02-01T03:54:22;12.13;;;4.35;;
49131;SDS011;35149;51.196;6.204;2023-02-01T03:56:50;15.68;;;4.68;;
49131;SDS011;35149;51.196;6.204;2023-02-01T03:59:22;14.87;;;4.77;;
49131;SDS011;35149;51.196;6.204;2023-02-01T04:01:51;9.80;;;4.20;;
49131;SDS011;35149;51.196;6.204;2023-02-01T04:04:19;11.82;;;4.68;;
49131;SDS011;35149;51.196;6.204;2023-02-01T04:06:52;13.93;;;5.43;;
49131;SDS011;35149;51.196;6.204;2023-02-01T04:09:19;11.65;;;4.57;;
49131;SDS011;35149;51.196;6.204;2023-02-01T04:11:46;14.07;;;4.78;;
49131;SDS011;35149;51.196;6.204;2023-02-01T04:14:12;13.48;;;5.38;;
49131;SDS011;35149;51.196;6.204;2023-02-01T04:16:39;12.65;;;4.38;;
49131;SDS011;35149;51.196;6.204;2023-02-01T04:19:06;10.57;;;4.70;;
49131;SDS011;35149;51.196;6.204;2023-02-01T04:21:32;11.02;;;5.25;;
49131;SDS011;35149;51.196;6.204;2023-02-01T04:23:59;14.63;;;4.88;;
49131;SDS011;35149;51.196;6.204;2023-02-01T04:26:26;17.35;;;4.97;;
49131;SDS011;35149;51.196;6.204;2023-02-01T04:28:57;10.13;;;4.82;;
49131;SDS011;35149;51.196;6.204;2023-02-01T04:31:24;10.93;;;4.32;;
49131;SDS011;35149;51.196;6.204;2023-02-01T04:33:54;10.40;;;4.40;;
49131;SDS011;35149;51.196;6.204;2023-02-01T04:36:24;16.88;;;4.63;;
49131;SDS011;35149;51.196;6.204;2023-02-01T04:38:51;13.45;;;4.93;;
49131;SDS011;35149;51.196;6.204;2023-02-01T04:41:18;13.43;;;4.28;;
49131;SDS011;35149;51.196;6.204;2023-02-01T04:43:46;16.05;;;4.55;;
49131;SDS011;35149;51.196;6.204;2023-02-01T04:46:16;12.18;;;4.70;;
49131;SDS011;35149;51.196;6.204;2023-02-01T04:48:45;12.05;;;4.47;;
49131;SDS011;35149;51.196;6.204;2023-02-01T04:51:16;11.05;;;4.40;;
49131;SDS011;35149;51.196;6.204;2023-02-01T04:53:44;15.38;;;4.63;;
49131;SDS011;35149;51.196;6.204;2023-02-01T04:56:13;12.25;;;4.10;;
49131;SDS011;35149;51.196;6.204;2023-02-01T04:58:40;9.02;;;4.18;;
49131;SDS011;35149;51.196;6.204;2023-02-01T05:01:08;12.27;;;4.63;;
49131;SDS011;35149;51.196;6.204;2023-02-01T05:03:38;10.02;;;4.22;;
49131;SDS011;35149;51.196;6.204;2023-02-01T05:06:09;12.95;;;4.35;;
49131;SDS011;35149;51.196;6.204;2023-02-01T05:08:36;15.45;;;4.43;;
49131;SDS011;35149;51.196;6.204;2023-02-01T05:11:04;10.25;;;4.68;;
49131;SDS011;35149;51.196;6.204;2023-02-01T05:13:53;12.45;;;4.80;;
49131;SDS011;35149;51.196;6.204;2023-02-01T05:16:21;13.65;;;4.28;;
49131;SDS011;35149;51.196;6.204;2023-02-01T05:18:47;11.30;;;4.05;;
49131;SDS011;35149;51.196;6.204;2023-02-01T05:21:14;14.77;;;4.97;;
49131;SDS011;35149;51.196;6.204;2023-02-01T05:23:41;11.88;;;3.95;;
49131;SDS011;35149;51.196;6.204;2023-02-01T05:26:26;14.05;;;4.22;;
49131;SDS011;35149;51.196;6.204;2023-02-01T05:28:53;13.52;;;4.28;;
49131;SDS011;35149;51.196;6.204;2023-02-01T05:31:19;14.57;;;3.75;;
49131;SDS011;35149;51.196;6.204;2023-02-01T05:33:47;16.75;;;4.13;;
49131;SDS011;35149;51.196;6.204;2023-02-01T05:36:13;13.73;;;4.60;;
49131;SDS011;35149;51.196;6.204;2023-02-01T05:38:40;13.38;;;4.70;;
49131;SDS011;35149;51.196;6.204;2023-02-01T05:41:07;17.17;;;4.65;;
49131;SDS011;35149;51.196;6.204;2023-02-01T05:43:35;15.40;;;4.60;;
49131;SDS011;35149;51.196;6.204;2023-02-01T05:46:02;15.25;;;4.15;;
49131;SDS011;35149;51.196;6.204;2023-02-01T05:48:29;16.42;;;5.18;;
49131;SDS011;35149;51.196;6.204;2023-02-01T05:50:55;13.23;;;3.92;;
49131;SDS011;35149;51.196;6.204;2023-02-01T05:53:22;13.75;;;4.00;;
49131;SDS011;35149;51.196;6.204;2023-02-01T05:55:49;11.23;;;4.32;;
49131;SDS011;35149;51.196;6.204;2023-02-01T05:58:15;9.27;;;3.75;;
49131;SDS011;35149;51.196;6.204;2023-02-01T06:00:42;13.02;;;3.90;;
49131;SDS011;35149;51.196;6.204;2023-02-01T06:03:09;14.68;;;4.18;;
49131;SDS011;35149;51.196;6.204;2023-02-01T06:05:38;17.92;;;4.47;;
49131;SDS011;35149;51.196;6.204;2023-02-01T06:08:04;13.43;;;4.68;;
49131;SDS011;35149;51.196;6.204;2023-02-01T06:10:33;12.50;;;4.18;;
49131;SDS011;35149;51.196;6.204;2023-02-01T06:13:00;12.65;;;4.47;;
49131;SDS011;35149;51.196;6.204;2023-02-01T06:15:26;14.15;;;4.18;;
49131;SDS011;35149;51.196;6.204;2023-02-01T06:17:53;16.10;;;4.13;;
49131;SDS011;35149;51.196;6.204;2023-02-01T06:20:20;11.45;;;4.25;;
49131;SDS011;35149;51.196;6.204;2023-02-01T06:22:48;14.82;;;4.75;;
49131;SDS011;35149;51.196;6.204;2023-02-01T06:25:14;19.83;;;5.07;;
49131;SDS011;35149;51.196;6.204;2023-02-01T06:27:42;12.05;;;3.97;;
49131;SDS011;35149;51.196;6.204;2023-02-01T06:30:11;19.40;;;5.15;;
49131;SDS011;35149;51.196;6.204;2023-02-01T06:32:42;13.52;;;3.67;;
49131;SDS011;35149;51.196;6.204;2023-02-01T06:35:09;13.75;;;3.92;;
49131;SDS011;35149;51.196;6.204;2023-02-01T06:37:42;11.70;;;4.45;;
49131;SDS011;35149;51.196;6.204;2023-02-01T06:40:10;12.25;;;3.95;;
49131;SDS011;35149;51.196;6.204;2023-02-01T06:42:37;16.95;;;5.30;;
49131;SDS011;35149;51.196;6.204;2023-02-01T06:45:04;16.70;;;5.22;;
49131;SDS011;35149;51.196;6.204;2023-02-01T06:47:32;10.15;;;4.65;;
49131;SDS011;35149;51.196;6.204;2023-02-01T06:49:59;18.65;;;4.78;;
49131;SDS011;35149;51.196;6.204;2023-02-01T06:52:26;12.90;;;4.60;;
49131;SDS011;35149;51.196;6.204;2023-02-01T06:54:52;15.48;;;5.50;;
49131;SDS011;35149;51.196;6.204;2023-02-01T06:57:19;14.90;;;5.28;;
49131;SDS011;35149;51.196;6.204;2023-02-01T06:59:45;13.13;;;4.47;;
49131;SDS011;35149;51.196;6.204;2023-02-01T07:02:12;15.63;;;4.47;;
49131;SDS011;35149;51.196;6.204;2023-02-01T07:04:39;15.73;;;6.18;;
49131;SDS011;35149;51.196;6.204;2023-02-01T07:07:05;13.35;;;5.03;;
49131;SDS011;35149;51.196;6.204;2023-02-01T07:09:32;18.02;;;4.43;;
49131;SDS011;35149;51.196;6.204;2023-02-01T07:11:59;9.00;;;3.70;;
49131;SDS011;35149;51.196;6.204;2023-02-01T07:14:25;15.82;;;4.90;;
49131;SDS011;35149;51.196;6.204;2023-02-01T07:16:52;17.58;;;5.28;;
49131;SDS011;35149;51.196;6.204;2023-02-01T07:19:18;14.65;;;4.20;;
49131;SDS011;35149;51.196;6.204;2023-02-01T07:21:45;17.38;;;5.72;;
49131;SDS011;35149;51.196;6.204;2023-02-01T07:24:11;14.38;;;5.15;;
49131;SDS011;35149;51.196;6.204;2023-02-01T07:26:38;14.05;;;4.97;;
49131;SDS011;35149;51.196;6.204;2023-02-01T07:29:05;8.82;;;3.88;;
49131;SDS011;35149;51.196;6.204;2023-02-01T07:31:31;12.68;;;4.55;;
49131;SDS011;35149;51.196;6.204;2023-02-01T07:33:58;15.20;;;4.30;;
49131;SDS011;35149;51.196;6.204;2023-02-01T07:36:25;15.10;;;4.18;;
49131;SDS011;35149;51.196;6.204;2023-02-01T07:38:52;12.63;;;4.82;;
49131;SDS011;35149;51.196;6.204;2023-02-01T07:41:21;14.10;;;4.38;;
49131;SDS011;35149;51.196;6.204;2023-02-01T07:43:48;11.13;;;4.28;;
49131;SDS011;35149;51.196;6.204;2023-02-01T07:46:18;9.02;;;4.13;;
49131;SDS011;35149;51.196;6.204;2023-02-01T07:48:47;15.73;;;4.47;;
49131;SDS011;35149;51.196;6.204;2023-02-01T07:51:14;21.60;;;4.88;;
49131;SDS011;35149;51.196;6.204;2023-02-01T07:53:42;15.55;;;4.63;;
49131;SDS011;35149;51.196;6.204;2023-02-01T07:56:13;12.25;;;4.05;;
49131;SDS011;35149;51.196;6.204;2023-02-01T07:58:41;12.85;;;4.38;;
49131;SDS011;35149;51.196;6.204;2023-02-01T08:01:15;14.68;;;4.78;;
49131;SDS011;35149;51.196;6.204;2023-02-01T08:03:49;10.90;;;4.18;;
49131;SDS011;35149;51.196;6.204;2023-02-01T08:06:18;12.98;;;4.07;;
49131;SDS011;35149;51.196;6.204;2023-02-01T08:08:49;16.13;;;5.35;;
49131;SDS011;35149;51.196;6.204;2023-02-01T08:11:16;16.10;;;5.07;;
49131;SDS011;35149;51.196;6.204;2023-02-01T08:13:43;16.80;;;4.47;;
49131;SDS011;35149;51.196;6.204;2023-02-01T08:16:11;12.75;;;4.72;;
49131;SDS011;35149;51.196;6.204;2023-02-01T08:18:39;13.50;;;4.30;;
49131;SDS011;35149;51.196;6.204;2023-02-01T08:21:10;15.15;;;4.43;;
49131;SDS011;35149;51.196;6.204;2023-02-01T08:23:41;13.63;;;4.40;;
49131;SDS011;35149;51.196;6.204;2023-02-01T08:28:41;11.05;;;4.00;;
49131;SDS011;35149;51.196;6.204;2023-02-01T08:31:10;15.32;;;4.43;;
49131;SDS011;35149;51.196;6.204;2023-02-01T08:33:40;20.52;;;4.13;;
49131;SDS011;35149;51.196;6.204;2023-02-01T08:36:09;16.48;;;5.03;;
49131;SDS011;35149;51.196;6.204;2023-02-01T08:38:37;13.75;;;5.22;;
49131;SDS011;35149;51.196;6.204;2023-02-01T08:41:09;12.32;;;4.47;;
49131;SDS011;35149;51.196;6.204;2023-02-01T08:43:42;12.82;;;4.57;;
49131;SDS011;35149;51.196;6.204;2023-02-01T08:46:09;15.77;;;4.50;;
49131;SDS011;35149;51.196;6.204;2023-02-01T08:48:36;14.82;;;4.22;;
49131;SDS011;35149;51.196;6.204;2023-02-01T08:51:04;9.90;;;3.95;;
49131;SDS011;35149;51.196;6.204;2023-02-01T08:53:36;13.70;;;4.35;;
49131;SDS011;35149;51.196;6.204;2023-02-01T08:56:03;12.88;;;4.70;;
49131;SDS011;35149;51.196;6.204;2023-02-01T08:58:30;11.25;;;4.28;;
49131;SDS011;35149;51.196;6.204;2023-02-01T09:00:57;18.48;;;4.70;;
49131;SDS011;35149;51.196;6.204;2023-02-01T09:03:28;10.90;;;4.75;;
49131;SDS011;35149;51.196;6.204;2023-02-01T09:05:59;13.30;;;4.53;;
49131;SDS011;35149;51.196;6.204;2023-02-01T09:08:29;11.32;;;4.95;;
49131;SDS011;35149;51.196;6.204;2023-02-01T09:11:04;9.98;;;3.40;;
49131;SDS011;35149;51.196;6.204;2023-02-01T09:13:33;12.93;;;4.93;;
49131;SDS011;35149;51.196;6.204;2023-02-01T09:16:01;13.32;;;4.43;;
49131;SDS011;35149;51.196;6.204;2023-02-01T09:18:29;16.73;;;4.28;;
49131;SDS011;35149;51.196;6.204;2023-02-01T09:20:56;12.88;;;4.05;;
49131;SDS011;35149;51.196;6.204;2023-02-01T09:23:23;15.48;;;4.35;;
49131;SDS011;35149;51.196;6.204;2023-02-01T09:25:50;13.77;;;4.35;;
49131;SDS011;35149;51.196;6.204;2023-02-01T09:28:17;15.77;;;4.15;;
49131;SDS011;35149;51.196;6.204;2023-02-01T09:30:45;11.75;;;3.88;;
49131;SDS011;35149;51.196;6.204;2023-02-01T09:33:13;15.95;;;4.07;;
49131;SDS011;35149;51.196;6.204;2023-02-01T09:35:39;12.93;;;3.92;;
49131;SDS011;35149;51.196;6.204;2023-02-01T09:38:06;17.27;;;4.65;;
49131;SDS011;35149;51.196;6.204;2023-02-01T09:40:36;14.98;;;4.75;;
49131;SDS011;35149;51.196;6.204;2023-02-01T09:43:17;11.05;;;4.53;;
49131;SDS011;35149;51.196;6.204;2023-02-01T09:45:49;14.13;;;4.50;;
49131;SDS011;35149;51.196;6.204;2023-02-01T09:48:26;16.33;;;5.07;;
49131;SDS011;35149;51.196;6.204;2023-02-01T09:50:59;11.05;;;4.32;;
49131;SDS011;35149;51.196;6.204;2023-02-01T09:56:03;14.95;;;5.47;;
49131;SDS011;35149;51.196;6.204;2023-02-01T09:58:33;13.80;;;5.40;;
49131;SDS011;35149;51.196;6.204;2023-02-01T10:01:04;10.38;;;4.57;;
49131;SDS011;35149;51.196;6.204;2023-02-01T10:03:44;13.80;;;4.43;;
49131;SDS011;35149;51.196;6.204;2023-02-01T10:06:16;12.00;;;4.28;;
49131;SDS011;35149;51.196;6.204;2023-02-01T10:08:56;14.35;;;4.80;;
49131;SDS011;35149;51.196;6.204;2023-02-01T10:11:50;7.85;;;4.03;;
49131;SDS011;35149;51.196;6.204;2023-02-01T10:26:19;15.25;;;5.20;;
49131;SDS011;35149;51.196;6.204;2023-02-01T10:28:56;16.27;;;4.28;;
49131;SDS011;35149;51.196;6.204;2023-02-01T10:31:29;10.38;;;4.25;;
49131;SDS011;35149;51.196;6.204;2023-02-01T10:34:06;11.60;;;4.30;;
49131;SDS011;35149;51.196;6.204;2023-02-01T10:36:42;16.15;;;4.68;;
49131;SDS011;35149;51.196;6.204;2023-02-01T10:39:19;14.77;;;4.57;;
49131;SDS011;35149;51.196;6.204;2023-02-01T10:41:46;14.18;;;4.43;;
49131;SDS011;35149;51.196;6.204;2023-02-01T10:44:17;18.38;;;4.97;;
49131;SDS011;35149;51.196;6.204;2023-02-01T10:46:50;13.02;;;3.78;;
49131;SDS011;35149;51.196;6.204;2023-02-01T10:49:19;15.85;;;4.95;;
49131;SDS011;35149;51.196;6.204;2023-02-01T10:52:07;15.23;;;3.80;;
49131;SDS011;35149;51.196;6.204;2023-02-01T10:54:40;17.65;;;5.20;;
49131;SDS011;35149;51.196;6.204;2023-02-01T10:57:07;18.67;;;4.35;;
49131;SDS011;35149;51.196;6.204;2023-02-01T10:59:55;16.15;;;5.43;;
49131;SDS011;35149;51.196;6.204;2023-02-01T11:02:33;13.15;;;4.20;;
49131;SDS011;35149;51.196;6.204;2023-02-01T11:05:10;14.13;;;4.55;;
49131;SDS011;35149;51.196;6.204;2023-02-01T11:07:39;10.13;;;4.22;;
49131;SDS011;35149;51.196;6.204;2023-02-01T11:13:03;11.10;;;3.28;;
49131;SDS011;35149;51.196;6.204;2023-02-01T11:15:30;13.55;;;4.63;;
49131;SDS011;35149;51.196;6.204;2023-02-01T11:17:57;12.13;;;3.78;;
49131;SDS011;35149;51.196;6.204;2023-02-01T11:20:41;12.40;;;5.07;;
49131;SDS011;35149;51.196;6.204;2023-02-01T11:23:13;9.48;;;3.53;;
49131;SDS011;35149;51.196;6.204;2023-02-01T11:26:28;9.73;;;4.03;;
49131;SDS011;35149;51.196;6.204;2023-02-01T11:28:50;11.65;;;4.55;;
49131;SDS011;35149;51.196;6.204;2023-02-01T11:31:24;12.48;;;4.32;;
49131;SDS011;35149;51.196;6.204;2023-02-01T11:33:59;14.70;;;4.13;;
49131;SDS011;35149;51.196;6.204;2023-02-01T11:36:33;10.80;;;3.45;;
49131;SDS011;35149;51.196;6.204;2023-02-01T11:41:42;11.30;;;4.88;;
49131;SDS011;35149;51.196;6.204;2023-02-01T11:44:22;16.70;;;4.28;;
49131;SDS011;35149;51.196;6.204;2023-02-01T11:47:18;7.88;;;4.07;;
49131;SDS011;35149;51.196;6.204;2023-02-01T11:49:57;11.75;;;5.13;;
49131;SDS011;35149;51.196;6.204;2023-02-01T11:55:24;11.25;;;3.65;;
49131;SDS011;35149;51.196;6.204;2023-02-01T11:58:27;8.68;;;4.50;;
49131;SDS011;35149;51.196;6.204;2023-02-01T12:01:43;11.15;;;3.95;;
49131;SDS011;35149;51.196;6.204;2023-02-01T12:04:45;14.63;;;4.90;;
49131;SDS011;35149;51.196;6.204;2023-02-01T12:10:15;13.60;;;3.58;;
49131;SDS011;35149;51.196;6.204;2023-02-01T12:21:11;9.35;;;3.33;;
49131;SDS011;35149;51.196;6.204;2023-02-01T12:24:27;11.07;;;3.63;;
49131;SDS011;35149;51.196;6.204;2023-02-01T12:33:00;7.05;;;3.72;;
49131;SDS011;35149;51.196;6.204;2023-02-01T12:35:47;16.25;;;3.92;;
49131;SDS011;35149;51.196;6.204;2023-02-01T12:41:20;12.70;;;3.45;;
49131;SDS011;35149;51.196;6.204;2023-02-01T12:52:27;14.93;;;7.15;;
49131;SDS011;35149;51.196;6.204;2023-02-01T12:55:15;8.88;;;3.25;;
49131;SDS011;35149;51.196;6.204;2023-02-01T13:00:49;14.43;;;3.10;;
49131;SDS011;35149;51.196;6.204;2023-02-01T13:03:38;12.35;;;3.17;;
49131;SDS011;35149;51.196;6.204;2023-02-01T13:06:26;6.47;;;2.45;;
49131;SDS011;35149;51.196;6.204;2023-02-01T13:09:02;9.10;;;3.10;;
49131;SDS011;35149;51.196;6.204;2023-02-01T13:11:51;4.88;;;2.97;;
49131;SDS011;35149;51.196;6.204;2023-02-01T13:17:38;11.00;;;3.13;;
49131;SDS011;35149;51.196;6.204;2023-02-01T13:22:47;7.45;;;2.55;;
49131;SDS011;35149;51.196;6.204;2023-02-01T13:25:40;7.93;;;2.42;;
49131;SDS011;35149;51.196;6.204;2023-02-01T13:28:15;9.73;;;3.80;;
49131;SDS011;35149;51.196;6.204;2023-02-01T13:30:59;7.95;;;2.47;;
49131;SDS011;35149;51.196;6.204;2023-02-01T13:33:59;6.22;;;2.78;;
49131;SDS011;35149;51.196;6.204;2023-02-01T13:37:10;9.77;;;3.00;;
49131;SDS011;35149;51.196;6.204;2023-02-01T13:42:25;5.88;;;2.50;;
49131;SDS011;35149;51.196;6.204;2023-02-01T13:45:03;9.47;;;2.37;;
49131;SDS011;35149;51.196;6.204;2023-02-01T13:47:39;8.85;;;3.08;;
49131;SDS011;35149;51.196;6.204;2023-02-01T13:55:24;5.65;;;2.53;;
49131;SDS011;35149;51.196;6.204;2023-02-01T13:58:40;8.13;;;2.22;;
49131;SDS011;35149;51.196;6.204;2023-02-01T14:00:48;9.20;;;2.45;;
49131;SDS011;35149;51.196;6.204;2023-02-01T14:03:18;6.20;;;2.25;;
49131;SDS011;35149;51.196;6.204;2023-02-01T14:08:23;5.50;;;2.35;;
49131;SDS011;35149;51.196;6.204;2023-02-01T14:11:04;6.97;;;2.10;;
49131;SDS011;35149;51.196;6.204;2023-02-01T14:29:25;8.68;;;2.60;;
49131;SDS011;35149;51.196;6.204;2023-02-01T14:32:06;13.05;;;3.10;;
49131;SDS011;35149;51.196;6.204;2023-02-01T14:39:51;9.68;;;2.72;;
49131;SDS011;35149;51.196;6.204;2023-02-01T14:48:41;7.88;;;2.90;;
49131;SDS011;35149;51.196;6.204;2023-02-01T14:50:44;8.80;;;2.88;;
49131;SDS011;35149;51.196;6.204;2023-02-01T14:55:58;7.63;;;2.78;;
49131;SDS011;35149;51.196;6.204;2023-02-01T14:58:54;8.18;;;2.20;;
49131;SDS011;35149;51.196;6.204;2023-02-01T15:01:36;12.20;;;3.42;;
49131;SDS011;35149;51.196;6.204;2023-02-01T15:04:13;8.52;;;2.75;;
49131;SDS011;35149;51.196;6.204;2023-02-01T15:06:45;15.40;;;3.85;;
49131;SDS011;35149;51.196;6.204;2023-02-01T15:14:41;10.02;;;2.47;;
49131;SDS011;35149;51.196;6.204;2023-02-01T15:25:44;9.20;;;2.85;;
49131;SDS011;35149;51.196;6.204;2023-02-01T15:28:12;8.50;;;2.50;;
49131;SDS011;35149;51.196;6.204;2023-02-01T15:30:50;12.48;;;2.95;;
49131;SDS011;35149;51.196;6.204;2023-02-01T15:33:22;11.02;;;3.08;;
49131;SDS011;35149;51.196;6.204;2023-02-01T15:35:50;9.85;;;2.88;;
49131;SDS011;35149;51.196;6.204;2023-02-01T15:41:14;10.85;;;2.72;;
49131;SDS011;35149;51.196;6.204;2023-02-01T15:46:30;9.18;;;3.33;;
49131;SDS011;35149;51.196;6.204;2023-02-01T15:51:50;12.18;;;3.97;;
49131;SDS011;35149;51.196;6.204;2023-02-01T15:54:28;11.85;;;3.63;;
49131;SDS011;35149;51.196;6.204;2023-02-01T15:57:20;14.25;;;3.50;;
49131;SDS011;35149;51.196;6.204;2023-02-01T15:59:56;9.63;;;2.97;;
49131;SDS011;35149;51.196;6.204;2023-02-01T16:02:26;11.98;;;3.28;;
49131;SDS011;35149;51.196;6.204;2023-02-01T16:04:58;7.30;;;2.92;;
49131;SDS011;35149;51.196;6.204;2023-02-01T16:07:29;10.93;;;3.20;;
49131;SDS011;35149;51.196;6.204;2023-02-01T16:09:58;13.15;;;2.92;;
49131;SDS011;35149;51.196;6.204;2023-02-01T16:12:34;16.50;;;3.35;;
49131;SDS011;35149;51.196;6.204;2023-02-01T16:15:04;11.75;;;3.17;;
49131;SDS011;35149;51.196;6.204;2023-02-01T16:17:31;10.52;;;2.80;;
49131;SDS011;35149;51.196;6.204;2023-02-01T16:19:58;11.38;;;3.13;;
49131;SDS011;35149;51.196;6.204;2023-02-01T16:22:24;9.50;;;3.47;;
49131;SDS011;35149;51.196;6.204;2023-02-01T16:24:53;9.70;;;3.42;;
49131;SDS011;35149;51.196;6.204;2023-02-01T16:27:20;8.70;;;2.88;;
49131;SDS011;35149;51.196;6.204;2023-02-01T16:29:48;17.13;;;4.00;;
49131;SDS011;35149;51.196;6.204;2023-02-01T16:32:19;9.30;;;3.35;;
49131;SDS011;35149;51.196;6.204;2023-02-01T16:34:47;10.93;;;3.43;;
49131;SDS011;35149;51.196;6.204;2023-02-01T16:37:15;10.40;;;3.22;;
49131;SDS011;35149;51.196;6.204;2023-02-01T16:39:46;8.68;;;2.47;;
49131;SDS011;35149;51.196;6.204;2023-02-01T16:42:13;8.70;;;2.38;;
49131;SDS011;35149;51.196;6.204;2023-02-01T16:44:42;9.95;;;3.20;;
49131;SDS011;35149;51.196;6.204;2023-02-01T16:47:27;18.42;;;3.55;;
49131;SDS011;35149;51.196;6.204;2023-02-01T16:49:54;13.30;;;2.70;;
49131;SDS011;35149;51.196;6.204;2023-02-01T16:52:21;9.70;;;3.40;;
49131;SDS011;35149;51.196;6.204;2023-02-01T16:54:50;8.98;;;2.92;;
49131;SDS011;35149;51.196;6.204;2023-02-01T16:57:17;12.23;;;3.33;;
49131;SDS011;35149;51.196;6.204;2023-02-01T16:59:45;7.50;;;2.78;;
49131;SDS011;35149;51.196;6.204;2023-02-01T17:02:13;8.88;;;2.45;;
49131;SDS011;35149;51.196;6.204;2023-02-01T17:04:42;10.63;;;3.25;;
49131;SDS011;35149;51.196;6.204;2023-02-01T17:07:15;8.85;;;3.45;;
49131;SDS011;35149;51.196;6.204;2023-02-01T17:09:45;12.00;;;2.92;;
49131;SDS011;35149;51.196;6.204;2023-02-01T17:12:24;7.40;;;2.70;;
49131;SDS011;35149;51.196;6.204;2023-02-01T17:14:58;12.63;;;2.90;;
49131;SDS011;35149;51.196;6.204;2023-02-01T17:17:26;7.78;;;2.63;;
49131;SDS011;35149;51.196;6.204;2023-02-01T17:20:11;12.07;;;3.15;;
49131;SDS011;35149;51.196;6.204;2023-02-01T17:22:50;9.57;;;3.25;;
49131;SDS011;35149;51.196;6.204;2023-02-01T17:25:21;16.08;;;3.22;;
49131;SDS011;35149;51.196;6.204;2023-02-01T17:27:48;9.63;;;3.22;;
49131;SDS011;35149;51.196;6.204;2023-02-01T17:30:17;5.82;;;2.72;;
49131;SDS011;35149;51.196;6.204;2023-02-01T17:32:44;9.20;;;2.92;;
49131;SDS011;35149;51.196;6.204;2023-02-01T17:35:23;14.07;;;3.30;;
49131;SDS011;35149;51.196;6.204;2023-02-01T17:37:51;8.35;;;3.78;;
49131;SDS011;35149;51.196;6.204;2023-02-01T17:40:19;10.02;;;2.85;;
49131;SDS011;35149;51.196;6.204;2023-02-01T17:42:45;14.57;;;2.65;;
49131;SDS011;35149;51.196;6.204;2023-02-01T17:48:04;12.52;;;3.42;;
49131;SDS011;35149;51.196;6.204;2023-02-01T17:50:33;11.20;;;3.80;;
49131;SDS011;35149;51.196;6.204;2023-02-01T17:53:03;8.02;;;3.15;;